Unionville, OH (44088)

6:36 PM EDT on August 28, 2015 (GMT -0400)
Silver Ash | | Change Station
CLOSE
Current Station
Personal Weather Station
Location: Geneva, OH
Elevation: 814 ft
Nearby Weather Stations

Elev 814 ft 41.75 °N, 81.00 °W | Updated 9 seconds ago

Mostly Cloudy
Mostly Cloudy
69.6 °F
Feels Like 69.6 °F
N
0.0
Wind Variable Wind from NW
Gusts 0.0 mph

Today
High -- | Low -- °F
--% Chance of Precip.
Yesterday
High -- | Low -- °F
Precip. -- in
6:45 AM 8:04 PM
Waxing Gibbous, 99% visible
Pressure 30.18 in
Visibility 10.0 miles
Clouds Clear
Dew Point 67 °F
Humidity 90%
Rainfall 0.00 in
Snow Depth Not available.
UV 2 out of 12
Pollen 9.80 out of 12
Air Quality Not available.
Flu Activity Not available.
METAR KHZY 282153Z AUTO 36006KT 10SM CLR 22/15 A3018 RMK AO2 SLP220 T02170150
Pressure 30.18 in
Visibility 10.0 miles
Clouds Clear
Dew Point 67 °F
Humidity 90%
Rainfall 0.00 in
Snow Depth Not available.
UV 2 out of 12
Pollen 9.80 out of 12
Air Quality Not available.
Flu Activity Not available.
METAR KHZY 282153Z AUTO 36006KT 10SM CLR 22/15 A3018 RMK AO2 SLP220 T02170150

10-Day Weather Forecast

×

Almanac

Astronomy

Aug. 28, 2015 Rise Set
Actual Time
Civil Twilight
Nautical Twilight
Astronomical Twilight
Moon
Length of Visible Light
Length of Day
Tomorrow will be .
, % of the Moon is Illuminated

Today's Extremes

State Highs State Lows

Community

WunderPhotos

Upload Photos

1,850,515 photos uploaded!

WunderBlogs® & News

Nearby

Air Quality

  Air Quality AQ Index Pollutant
Not available.

Snow Depth

Station Depth Elevation

Earthquake Activity

City Distance Mag. Time & Date
Minimum magnitude displayed is 2.5.

Coastal Water Temperatures

Place Temperature

Stations

Nearby Weather Stations

Station Location Temp. Windchill Dew Point Humidity Wind Precip. Elev Updated Type